Accueil
METAR-TAF:

METAR-TAF

Aéroports :

Aéroport international de Krasnodar

Krasnodar, Russie

latitude: 45-02N, longitude: 039-09E, altitude: 33 m

Observation

Le bulletin a été fait il y a 20 minutes, à 08:00 UTC
Vent 6 kt de sud/sud-est
Température 3°C
Humidité 70%
Pression 1031 hPa
Visibilité 10 km ou plus
pas de nuages en-dessous de 1500 mètres et pas de cumulonimbus.

METAR: URKK 060800Z 16003MPS CAVOK 03/M02 Q1031 R23L/190065 NOSIG RMK QFE770

Heure: 12:20 (08:20 UTC)

Prévision

Le bulletin a été fait il y a 1 heure et 28 minutes, à 06:52 UTC
Prévision valable du 06 à 07 UTC au 07 à 06 UTC
Vent 6 kt de sud/sud-est avec des rafales jusqu'à 16 kt
Visibilité 10 km ou plus
Nuages épars à une hauteur de 4000 ft
Temporairement
du 06 à 18 UTC au 07 à 06 UTC
Visibilité: 3100 m
Nuages épars à une hauteur de 1100 ft
brume

TAF: URKK 060652Z 0607/0706 15003G08MPS 9999 SCT040 TEMPO 0618/0706 3100 BR SCT011

Observations et prévisions météorologiques de plus de 4000 aéroports (messages METAR et TAF).

Les stations disponibles sont représentées par des disques jaunes et rouges sur la carte.

Passer la souris dessus pour voir le nom de la station.

Cliquer dessus pour voir les observations et prévisions météorologiques.

Pour changer de carte: cliquez sur les boutons verts avec une croix noire pour zoomer, sur le bouton vert avec un tiret pour effectuer un zoom arrière, ou sur les flèches vertes pour les cartes adjacentes.


METAR-TAF: